createdAt,value
2018-09-29T00:01:40.177Z,2.83
2018-09-29T00:04:09.254Z,2.60
2018-09-29T00:06:38.193Z,2.57
2018-09-29T00:09:09.687Z,3.13
2018-09-29T00:11:38.581Z,2.43
2018-09-29T00:14:08.094Z,2.60
2018-09-29T00:16:37.474Z,3.13
2018-09-29T00:19:11.547Z,2.10
2018-09-29T00:21:40.481Z,2.73
2018-09-29T00:24:09.476Z,2.40
2018-09-29T00:26:38.463Z,2.87
2018-09-29T00:29:07.448Z,3.00
2018-09-29T00:31:36.337Z,2.27
2018-09-29T00:34:05.425Z,2.80
2018-09-29T00:36:34.301Z,2.47
2018-09-29T00:39:03.380Z,2.93
2018-09-29T00:41:32.306Z,2.80
2018-09-29T00:44:01.301Z,2.50
2018-09-29T00:46:30.189Z,2.53
2018-09-29T00:48:59.266Z,2.83
2018-09-29T00:51:28.155Z,2.67
2018-09-29T00:53:57.197Z,3.33
2018-09-29T00:56:26.078Z,3.00
2018-09-29T00:58:55.085Z,2.97
2018-09-29T01:01:24.205Z,2.70
2018-09-29T01:03:53.177Z,2.33
2018-09-29T01:06:22.019Z,3.07
2018-09-29T01:08:51.001Z,2.87
2018-09-29T01:11:19.888Z,2.60
2018-09-29T01:13:48.938Z,2.90
2018-09-29T01:16:17.815Z,2.60
2018-09-29T01:18:46.837Z,2.63
2018-09-29T01:21:15.734Z,3.00
2018-09-29T01:23:44.830Z,3.13
2018-09-29T01:26:13.778Z,2.80
2018-09-29T01:28:42.861Z,3.13
2018-09-29T01:31:12.356Z,3.07
2018-09-29T01:33:41.299Z,2.90
2018-09-29T01:36:10.214Z,3.00
2018-09-29T01:38:40.212Z,2.93
2018-09-29T01:41:09.008Z,2.60
2018-09-29T01:43:38.059Z,3.23
2018-09-29T01:46:07.004Z,2.93
2018-09-29T01:48:35.992Z,2.53
2018-09-29T01:51:05.391Z,2.87
2018-09-29T01:53:34.380Z,3.47
2018-09-29T01:56:03.204Z,3.30
2018-09-29T01:58:36.885Z,2.90
2018-09-29T02:01:05.820Z,2.83
2018-09-29T02:03:34.720Z,3.00
2018-09-29T02:06:03.581Z,2.73
2018-09-29T02:08:33.561Z,2.60
2018-09-29T02:11:02.374Z,2.73
2018-09-29T02:13:31.303Z,2.90
2018-09-29T02:16:00.167Z,3.53
2018-09-29T02:18:30.159Z,2.83
2018-09-29T02:20:58.991Z,2.50
2018-09-29T02:23:27.920Z,2.53
2018-09-29T02:25:56.787Z,2.47
2018-09-29T02:28:25.757Z,2.20
2018-09-29T02:30:54.628Z,2.90
2018-09-29T02:33:23.556Z,2.50
2018-09-29T02:35:52.389Z,2.93
2018-09-29T02:38:21.377Z,3.00
2018-09-29T02:40:50.199Z,3.30
2018-09-29T02:43:19.110Z,2.60
2018-09-29T02:45:47.903Z,2.63
2018-09-29T02:48:16.873Z,2.80
2018-09-29T02:50:45.821Z,2.60
2018-09-29T02:53:14.717Z,3.07
2018-09-29T02:55:43.537Z,3.00
2018-09-29T02:58:12.532Z,2.80
2018-09-29T03:00:41.424Z,2.90
2018-09-29T03:03:10.320Z,3.00
2018-09-29T03:05:39.179Z,3.23
2018-09-29T03:08:08.542Z,3.37
2018-09-29T03:10:40.391Z,3.20
2018-09-29T03:13:09.418Z,3.30
2018-09-29T03:15:38.258Z,3.37
2018-09-29T03:18:07.239Z,3.00
2018-09-29T03:20:36.076Z,3.17
2018-09-29T03:23:05.028Z,2.80
2018-09-29T03:25:33.854Z,2.63
2018-09-29T03:28:02.723Z,3.33
2018-09-29T03:30:31.688Z,2.93
2018-09-29T03:33:00.631Z,2.90
2018-09-29T03:35:29.572Z,2.90
2018-09-29T03:37:58.580Z,2.53
2018-09-29T03:40:27.409Z,3.33
2018-09-29T03:42:56.366Z,2.40
2018-09-29T03:45:25.247Z,3.03
2018-09-29T03:47:54.147Z,2.77
2018-09-29T03:50:23.016Z,2.80
2018-09-29T03:52:51.953Z,2.47
2018-09-29T03:55:20.780Z,2.80
2018-09-29T03:57:49.786Z,2.30
2018-09-29T04:00:18.607Z,3.07
2018-09-29T04:02:47.562Z,2.43
2018-09-29T04:05:16.425Z,2.40
2018-09-29T04:07:45.418Z,2.43
2018-09-29T04:10:14.321Z,2.50
2018-09-29T04:12:43.410Z,2.57
2018-09-29T04:15:12.326Z,2.70
2018-09-29T04:17:41.394Z,2.83
2018-09-29T04:20:10.227Z,2.60
2018-09-29T04:22:39.281Z,2.63
2018-09-29T04:25:08.109Z,3.00
2018-09-29T04:27:37.221Z,2.37
2018-09-29T04:30:06.099Z,3.03
2018-09-29T04:32:35.157Z,2.87
2018-09-29T04:35:04.000Z,2.60
2018-09-29T04:37:33.012Z,2.77
2018-09-29T04:40:01.859Z,2.60
2018-09-29T04:42:30.927Z,3.10
2018-09-29T04:44:59.812Z,2.97
2018-09-29T04:47:28.888Z,2.60
2018-09-29T04:49:57.693Z,2.50
2018-09-29T04:52:27.799Z,2.97
2018-09-29T04:54:56.660Z,3.00
2018-09-29T04:57:25.672Z,3.17
2018-09-29T04:59:54.533Z,2.73
2018-09-29T05:02:23.553Z,2.93
2018-09-29T05:04:52.483Z,3.30
2018-09-29T05:07:25.115Z,3.20
2018-09-29T05:09:54.014Z,3.00
2018-09-29T05:12:24.002Z,3.03
2018-09-29T05:14:52.849Z,2.63
2018-09-29T05:17:21.938Z,2.80
2018-09-29T05:19:50.788Z,3.13
2018-09-29T05:22:20.860Z,2.73
2018-09-29T05:24:49.735Z,2.27
2018-09-29T05:27:20.763Z,2.60
2018-09-29T05:29:49.569Z,2.43
2018-09-29T05:32:18.674Z,2.47
2018-09-29T05:34:47.516Z,2.70
2018-09-29T05:37:16.523Z,2.50
2018-09-29T05:39:45.361Z,2.40
2018-09-29T05:42:14.465Z,3.17
2018-09-29T05:44:43.538Z,2.50
2018-09-29T05:47:12.642Z,2.43
2018-09-29T05:49:41.493Z,2.53
2018-09-29T05:52:10.512Z,2.97
2018-09-29T05:54:39.359Z,3.07
2018-09-29T05:57:08.430Z,2.87
2018-09-29T05:59:37.277Z,2.97
2018-09-29T06:02:06.342Z,2.97
2018-09-29T06:04:35.199Z,2.63
2018-09-29T06:07:05.233Z,2.93
2018-09-29T06:09:34.123Z,2.77
2018-09-29T06:12:03.159Z,2.67
2018-09-29T06:14:32.029Z,2.97
2018-09-29T06:17:01.008Z,4.07
2018-09-29T06:19:29.832Z,3.50
2018-09-29T06:21:58.764Z,3.43
2018-09-29T06:24:27.625Z,3.10
2018-09-29T06:26:56.645Z,3.20
2018-09-29T06:29:25.411Z,3.20
2018-09-29T06:31:54.507Z,3.33
2018-09-29T06:34:23.391Z,2.90
2018-09-29T06:36:52.735Z,2.70
2018-09-29T06:39:21.684Z,2.97
2018-09-29T06:41:50.637Z,2.70
2018-09-29T06:44:20.840Z,2.73
2018-09-29T06:46:49.895Z,2.90
2018-09-29T06:49:18.730Z,2.77
2018-09-29T06:51:48.044Z,2.40
2018-09-29T06:54:16.869Z,3.70
2018-09-29T06:56:45.808Z,2.40
2018-09-29T06:59:14.686Z,3.03
2018-09-29T07:01:43.686Z,3.90
2018-09-29T07:04:12.535Z,2.87
2018-09-29T07:06:41.554Z,3.70
2018-09-29T07:09:11.757Z,3.43
2018-09-29T07:11:40.980Z,2.87
2018-09-29T07:14:09.862Z,3.50
2018-09-29T07:16:38.864Z,2.70
2018-09-29T07:19:07.738Z,3.13
2018-09-29T07:21:36.830Z,3.27
2018-09-29T07:24:05.663Z,3.57
2018-09-29T07:26:34.720Z,3.20
2018-09-29T07:29:03.568Z,4.13
2018-09-29T07:31:32.512Z,3.70
2018-09-29T07:34:01.321Z,3.80
2018-09-29T07:36:30.312Z,3.90
2018-09-29T07:38:59.243Z,3.67
2018-09-29T07:41:28.226Z,4.00
2018-09-29T07:43:57.110Z,3.20
2018-09-29T07:46:26.050Z,3.90
2018-09-29T07:48:54.890Z,4.00
2018-09-29T07:51:23.886Z,3.73
2018-09-29T07:53:52.869Z,3.57
2018-09-29T07:56:21.840Z,3.83
2018-09-29T07:58:50.723Z,3.90
2018-09-29T08:01:19.739Z,4.03
2018-09-29T08:03:48.587Z,3.43
2018-09-29T08:06:17.710Z,3.23
2018-09-29T08:08:46.569Z,2.97
2018-09-29T08:11:15.658Z,3.30
2018-09-29T08:13:44.467Z,3.53
2018-09-29T08:16:13.438Z,3.40
2018-09-29T08:18:42.275Z,3.43
2018-09-29T08:21:11.349Z,3.30
2018-09-29T08:23:40.215Z,2.87
2018-09-29T08:26:09.282Z,3.83
2018-09-29T08:28:38.405Z,3.07
2018-09-29T08:31:07.378Z,2.67
2018-09-29T08:33:36.175Z,2.97
2018-09-29T08:36:05.153Z,2.80
2018-09-29T08:38:34.134Z,2.87
2018-09-29T08:41:03.123Z,3.03
2018-09-29T08:43:32.010Z,2.80
2018-09-29T08:46:00.841Z,2.77
2018-09-29T08:48:29.703Z,3.10
2018-09-29T08:50:58.597Z,3.07
2018-09-29T08:53:27.469Z,3.10
2018-09-29T08:55:56.457Z,2.93
2018-09-29T08:58:25.345Z,2.30
2018-09-29T09:00:54.348Z,2.97
2018-09-29T09:03:23.201Z,2.90
2018-09-29T09:05:52.237Z,3.30
2018-09-29T09:08:21.098Z,3.10
2018-09-29T09:10:50.171Z,2.50
2018-09-29T09:13:19.003Z,3.33
2018-09-29T09:15:48.036Z,2.63
2018-09-29T09:18:16.890Z,3.03
2018-09-29T09:20:46.928Z,3.03
2018-09-29T09:23:15.817Z,3.30
2018-09-29T09:25:44.803Z,2.73
2018-09-29T09:28:13.630Z,3.00
2018-09-29T09:30:42.548Z,2.60
2018-09-29T09:33:11.372Z,2.93
2018-09-29T09:35:40.396Z,2.77
2018-09-29T09:38:09.214Z,2.10
2018-09-29T09:40:38.472Z,2.53
2018-09-29T09:43:07.421Z,2.33
2018-09-29T09:45:36.521Z,2.30
2018-09-29T09:48:05.442Z,2.20
2018-09-29T09:50:34.783Z,1.80
2018-09-29T09:53:03.678Z,2.03
2018-09-29T10:00:37.584Z,1.90
2018-09-29T10:03:11.648Z,1.60
2018-09-29T10:05:40.640Z,2.47
2018-09-29T10:08:09.609Z,2.10
2018-09-29T10:10:38.494Z,1.40
2018-09-29T10:13:08.433Z,1.77
2018-09-29T10:15:37.346Z,1.70
2018-09-29T10:18:06.392Z,2.07
2018-09-29T10:20:35.295Z,1.77
2018-09-29T10:23:04.189Z,1.73
2018-09-29T10:25:33.225Z,1.67
2018-09-29T10:28:02.072Z,1.83
2018-09-29T10:30:31.133Z,1.80
2018-09-29T10:32:59.992Z,1.80
2018-09-29T10:35:28.960Z,1.63
2018-09-29T10:37:58.124Z,1.97
2018-09-29T10:40:27.329Z,2.00
2018-09-29T14:01:20.206Z,1.10
2018-09-29T14:03:49.149Z,1.03
2018-09-29T14:06:18.152Z,1.23
2018-09-29T14:08:46.978Z,1.27
2018-09-29T14:11:15.955Z,1.03
2018-09-29T14:13:44.811Z,1.10
2018-09-29T14:16:13.918Z,1.00
2018-09-29T14:18:42.915Z,1.10
2018-09-29T14:21:12.212Z,1.17
2018-09-29T14:23:41.107Z,1.20
2018-09-29T14:26:10.382Z,1.80
2018-09-29T14:28:39.261Z,1.10
2018-09-29T14:31:08.339Z,1.20
2018-09-29T14:33:37.453Z,1.20
2018-09-29T14:36:06.724Z,1.83
2018-09-29T14:38:35.624Z,1.10
2018-09-29T14:41:05.685Z,1.30
2018-09-29T14:43:34.634Z,1.23
2018-09-29T14:46:03.770Z,1.40
2018-09-29T14:48:32.692Z,1.20
2018-09-29T14:51:01.730Z,1.00
2018-09-29T14:53:30.613Z,1.83
2018-09-29T14:56:00.704Z,1.50
2018-09-29T14:58:29.585Z,1.30
2018-09-29T15:00:58.917Z,0.93
2018-09-29T15:03:27.796Z,1.30
2018-09-29T15:05:58.085Z,1.50
2018-09-29T15:08:26.926Z,1.13
2018-09-29T15:10:55.943Z,1.50
2018-09-29T15:13:25.137Z,1.67
2018-09-29T15:15:54.240Z,1.10
2018-09-29T15:18:23.130Z,1.20
2018-09-29T15:20:53.186Z,1.30
2018-09-29T15:23:22.188Z,1.20
2018-09-29T15:25:51.316Z,1.60
2018-09-29T15:28:20.238Z,1.60
2018-09-29T15:30:49.308Z,1.30
2018-09-29T15:33:18.258Z,1.43
2018-09-29T15:35:47.341Z,1.60
2018-09-29T15:38:16.343Z,1.70
2018-09-29T15:40:45.437Z,1.70
2018-09-29T15:43:14.360Z,2.00
2018-09-29T15:45:43.917Z,1.20
2018-09-29T15:48:12.884Z,1.37
2018-09-29T15:50:41.988Z,1.33
2018-09-29T15:53:10.910Z,1.37
2018-09-29T15:55:39.997Z,1.23
2018-09-29T15:58:09.064Z,1.80
2018-09-29T16:00:38.259Z,1.47
2018-09-29T16:03:07.432Z,1.40
2018-09-29T16:05:36.422Z,1.90
2018-09-29T16:08:05.321Z,1.87
2018-09-29T16:10:34.307Z,2.10
2018-09-29T16:13:03.309Z,1.40
2018-09-29T16:15:32.518Z,1.77
2018-09-29T16:18:01.370Z,1.80
2018-09-29T16:20:30.456Z,1.80
2018-09-29T16:22:59.278Z,1.70
2018-09-29T16:25:28.398Z,1.57
2018-09-29T16:27:57.259Z,1.73
2018-09-29T16:30:26.443Z,1.73
2018-09-29T16:32:55.299Z,1.77
2018-09-29T16:35:24.258Z,1.60
2018-09-29T16:37:53.281Z,1.70
2018-09-29T16:40:22.342Z,1.63
2018-09-29T16:42:51.171Z,1.33
2018-09-29T16:45:21.208Z,2.10
2018-09-29T16:47:50.141Z,1.83
2018-09-29T16:50:19.353Z,2.27
2018-09-29T16:52:48.613Z,2.40
2018-09-29T16:55:17.587Z,2.20
2018-09-29T16:57:46.380Z,2.00
2018-09-29T17:00:15.421Z,1.43
2018-09-29T17:02:44.229Z,1.70
2018-09-29T17:05:13.226Z,2.10
2018-09-29T17:07:42.122Z,1.83
2018-09-29T17:10:11.139Z,1.77
2018-09-29T17:12:39.981Z,1.40
2018-09-29T17:15:09.045Z,1.80
2018-09-29T17:17:37.921Z,1.83
2018-09-29T17:20:06.972Z,1.90
2018-09-29T17:22:35.834Z,1.83
2018-09-29T17:25:04.958Z,2.00
2018-09-29T17:27:33.900Z,1.40
2018-09-29T17:30:02.883Z,1.77
2018-09-29T17:32:31.962Z,1.83
2018-09-29T17:35:00.954Z,2.10
2018-09-29T17:37:29.948Z,1.83
2018-09-29T17:39:59.974Z,2.10
2018-09-29T17:42:28.909Z,1.80
2018-09-29T17:44:57.877Z,1.80
2018-09-29T17:47:26.787Z,2.60
2018-09-29T17:49:55.819Z,2.70
2018-09-29T17:52:24.674Z,2.50
2018-09-29T17:54:53.712Z,2.00
2018-09-29T17:57:22.505Z,2.73
2018-09-29T17:59:51.493Z,2.23
2018-09-29T18:02:20.354Z,2.50
2018-09-29T18:04:49.401Z,3.13
2018-09-29T18:07:18.301Z,3.50
2018-09-29T18:09:47.251Z,3.57
2018-09-29T18:12:16.138Z,3.50
2018-09-29T18:14:45.142Z,4.20
2018-09-29T18:17:13.997Z,4.40
2018-09-29T18:19:43.944Z,3.70
2018-09-29T18:22:12.813Z,2.37
2018-09-29T18:24:41.809Z,2.60
2018-09-29T18:27:11.144Z,3.40
2018-09-29T18:29:40.095Z,3.27
2018-09-29T18:32:09.289Z,2.97
2018-09-29T18:34:38.427Z,3.53
2018-09-29T18:37:07.319Z,2.27
2018-09-29T18:39:36.522Z,2.40
2018-09-29T18:42:05.545Z,2.07
2018-09-29T18:44:34.677Z,1.93
2018-09-29T18:47:03.605Z,2.10
2018-09-29T18:49:32.596Z,2.57
2018-09-29T18:52:01.445Z,2.33
2018-09-29T18:54:30.507Z,2.37
2018-09-29T18:56:59.895Z,2.50
2018-09-29T18:59:28.880Z,2.50
2018-09-29T19:01:57.849Z,2.13
2018-09-29T19:04:26.857Z,2.47
2018-09-29T19:06:55.717Z,2.30
2018-09-29T19:09:24.733Z,2.97
2018-09-29T19:11:53.694Z,2.50
2018-09-29T19:14:22.616Z,3.40
2018-09-29T19:16:51.487Z,3.70
2018-09-29T19:19:20.479Z,4.50
2018-09-29T19:21:49.366Z,4.90
2018-09-29T19:24:18.414Z,3.80
2018-09-29T19:26:47.257Z,4.13
2018-09-29T19:29:16.360Z,3.47
2018-09-29T19:31:45.321Z,3.40
2018-09-29T19:34:14.224Z,3.00
2018-09-29T19:36:43.094Z,2.43
2018-09-29T19:39:12.023Z,2.60
2018-09-29T19:41:40.921Z,2.87
2018-09-29T19:44:10.082Z,2.80
2018-09-29T19:46:38.941Z,3.10
2018-09-29T19:49:07.945Z,2.57
2018-09-29T19:51:36.855Z,3.00
2018-09-29T19:54:06.026Z,2.70
2018-09-29T19:56:35.067Z,3.20
2018-09-29T19:59:04.765Z,2.77
2018-09-29T20:01:33.609Z,2.27
2018-09-29T20:04:02.559Z,2.07
2018-09-29T20:06:31.422Z,2.23
2018-09-29T20:09:00.376Z,2.10
2018-09-29T20:11:29.249Z,2.07
2018-09-29T20:13:58.269Z,1.70
2018-09-29T20:16:27.162Z,2.20
2018-09-29T20:18:56.103Z,1.70
2018-09-29T20:21:24.977Z,2.67
2018-09-29T20:23:54.053Z,3.20
2018-09-29T20:26:22.920Z,2.63
2018-09-29T20:28:51.873Z,2.50
2018-09-29T20:31:20.767Z,3.03
2018-09-29T20:33:49.758Z,2.87
2018-09-29T20:36:18.671Z,2.23
2018-09-29T20:38:47.620Z,2.70
2018-09-29T20:41:16.482Z,2.57
2018-09-29T20:43:45.438Z,2.90
2018-09-29T20:46:14.286Z,2.57
2018-09-29T20:48:43.696Z,2.03
2018-09-29T20:51:12.574Z,1.90
2018-09-29T20:53:41.469Z,2.00
2018-09-29T20:56:10.276Z,1.80
2018-09-29T20:58:39.277Z,1.90
2018-09-29T21:01:08.088Z,2.00
2018-09-29T21:03:37.043Z,2.27
2018-09-29T21:06:05.863Z,2.23
2018-09-29T21:08:34.846Z,2.40
2018-09-29T21:11:03.697Z,2.20
2018-09-29T21:13:32.742Z,1.93
2018-09-29T21:16:01.596Z,2.27
2018-09-29T21:18:31.007Z,2.50
2018-09-29T21:20:59.942Z,2.50
2018-09-29T21:23:30.005Z,3.20
2018-09-29T21:25:58.981Z,2.73
2018-09-29T21:28:27.905Z,2.73
2018-09-29T21:30:56.792Z,2.30
2018-09-29T21:33:25.760Z,2.97
2018-09-29T21:35:54.914Z,2.27
2018-09-29T21:38:24.006Z,2.70
2018-09-29T21:40:52.880Z,2.40
2018-09-29T21:43:21.856Z,3.20
2018-09-29T21:45:50.795Z,2.50
2018-09-29T21:48:19.772Z,2.37
2018-09-29T21:50:48.730Z,2.27
2018-09-29T21:53:17.708Z,2.37
2018-09-29T21:55:46.583Z,2.77
2018-09-29T21:58:16.270Z,3.10
2018-09-29T22:00:45.876Z,2.73
2018-09-29T22:03:15.933Z,3.07
2018-09-29T22:05:45.492Z,2.77
2018-09-29T22:08:14.734Z,2.60
2018-09-29T22:10:43.888Z,2.50
2018-09-29T22:13:12.893Z,2.43
2018-09-29T22:15:41.747Z,2.60
2018-09-29T22:18:11.662Z,4.20
2018-09-29T22:20:40.564Z,4.97
2018-09-29T22:23:09.548Z,4.13
2018-09-29T22:25:38.470Z,2.67
2018-09-29T22:28:07.389Z,2.80
2018-09-29T22:30:36.236Z,2.97
2018-09-29T22:33:05.173Z,3.30
2018-09-29T22:35:34.528Z,3.37
2018-09-29T22:38:03.497Z,2.90
2018-09-29T22:40:32.310Z,2.67
2018-09-29T22:43:01.232Z,2.77
2018-09-29T22:45:30.091Z,2.67
2018-09-29T22:47:59.104Z,2.87
2018-09-29T22:50:27.930Z,3.10
2018-09-29T22:52:56.820Z,2.90
2018-09-29T22:55:25.712Z,3.10
2018-09-29T22:57:54.995Z,2.87
2018-09-29T23:00:24.087Z,3.07
2018-09-29T23:02:53.331Z,2.60
2018-09-29T23:05:22.181Z,2.73
2018-09-29T23:07:51.281Z,2.97
2018-09-29T23:10:20.450Z,3.10
2018-09-29T23:12:49.396Z,2.90
2018-09-29T23:15:18.287Z,3.13
2018-09-29T23:17:47.251Z,2.93
2018-09-29T23:20:16.061Z,3.20
2018-09-29T23:22:44.993Z,3.50
2018-09-29T23:25:14.017Z,3.40
2018-09-29T23:27:42.935Z,3.20
2018-09-29T23:30:12.050Z,3.40
2018-09-29T23:32:41.054Z,3.63
2018-09-29T23:35:09.976Z,3.47
2018-09-29T23:37:38.965Z,3.30
2018-09-29T23:40:07.823Z,3.60
2018-09-29T23:42:36.844Z,4.00
2018-09-29T23:45:05.733Z,3.97
2018-09-29T23:47:34.739Z,4.10
2018-09-29T23:50:03.646Z,3.50
2018-09-29T23:52:32.510Z,3.40
2018-09-29T23:55:01.368Z,3.87
2018-09-29T23:57:30.372Z,4.20
2018-09-29T23:59:59.296Z,4.20
